Nuussuaq

KL  EN  DA
ASIAQ
Weather Now GREENLAND SURVEY
Updated [WGT/WGST] Temperature [°C] Wind [m/s] Air pressure [hPa] Relative humidity [%] Precipitation [mm]
Present Wind chill Speed Max
21.01 20:00-14,5-21,73,6 ⇙4,699564n/a
21.01 19:00-15,1-21,83,1 ⇘4,699675n/a
21.01 18:00-15,0-21,63,1 ⇘5,799577n/a
21.01 17:00-14,9-22,74,1 ⇒5,799579n/a
21.01 16:00-14,8-24,05,7 ⇒7,799579n/a
21.01 15:00-13,8-22,35,1 ⇗7,799577n/a
21.01 14:00-13,6-23,87,7 ⇗11,399475n/a
21.01 13:00-13,3-23,78,2 ⇗10,899376n/a
21.01 12:00-12,9-23,58,8 ⇗12,999378n/a
21.01 11:00-12,6-23,910,3 ⇗14,499278n/a
21.01 10:00-12,1-22,28,2 ⇗11,399279n/a
21.01 09:00-11,7-21,98,8 ⇗12,499179n/a
21.01 08:00-11,3-20,67,2 ⇗10,399081n/a
21.01 07:00-11,3-19,96,2 ⇗8,298979n/a
21.01 06:00-10,7-18,85,7 ⇒7,798881n/a
21.01 05:00-10,7-15,12,1 ⇙2,698776n/a
21.01 04:00-10,4-16,13,1 ⇘4,198672n/a
21.01 03:00-10,6-16,93,6 ⇘5,198675n/a
21.01 02:00-10,5-17,34,1 ⇘6,798578n/a
21.01 01:00-10,5-17,74,6 ⇒6,798577n/a
21.01 00:00-10,6-16,93,6 ⇒5,798574n/a
20.01 23:00-10,8-18,55,1 ⇒7,298573n/a
20.01 22:00-10,3-19,06,7 ⇒8,898573n/a
20.01 21:00-10,3-19,06,7 ⇒8,898574n/a
20.01 20:00-9,7-17,65,7 ⇒7,798675n/a
Position: (70.656111111,-54.6)

[Back]